Time,TemperatureF,DewpointF,PressureIn,WindDirection,WindDirectionDegrees,WindSpeedMPH,WindSpeedGustMPH,Humidity,HourlyPrecipIn,Conditions,Clouds,dailyrainin,SolarRadiationWatts/m^2,SoftwareType,DateUTC
2013-06-12 00:02:00,63.0,59.0,29.96,SW,233,2.0,-999.0,88,-99.99,,,0.00,0,weatherlink.com 1.10,2013-06-12 07:02:00,
2013-06-12 00:17:00,62.9,59.0,29.96,South,184,0.0,-999.0,88,-99.99,,,0.00,0,weatherlink.com 1.10,2013-06-12 07:17:00,
2013-06-12 00:32:00,63.0,60.0,29.96,South,169,0.0,-999.0,89,-99.99,,,0.00,0,weatherlink.com 1.10,2013-06-12 07:32:00,
2013-06-12 00:47:00,62.8,59.0,29.96,SE,143,0.0,-999.0,88,-99.99,,,0.00,0,weatherlink.com 1.10,2013-06-12 07:47:00,
2013-06-12 01:02:00,62.7,60.0,29.96,SE,140,0.0,-999.0,89,-99.99,,,0.00,0,weatherlink.com 1.10,2013-06-12 08:02:00,
2013-06-12 01:17:00,62.7,60.0,29.95,SE,139,0.0,-999.0,89,-99.99,,,0.00,0,weatherlink.com 1.10,2013-06-12 08:17:00,
2013-06-12 01:32:00,62.6,59.0,29.95,South,187,0.0,-999.0,89,-99.99,,,0.00,0,weatherlink.com 1.10,2013-06-12 08:32:00,
2013-06-12 01:47:00,62.5,59.0,29.95,WNW,287,0.0,-999.0,89,-99.99,,,0.00,0,weatherlink.com 1.10,2013-06-12 08:47:00,
2013-06-12 02:02:00,62.4,60.0,29.95,West,267,0.0,-999.0,90,-99.99,,,0.00,0,weatherlink.com 1.10,2013-06-12 09:02:00,
2013-06-12 02:17:00,62.5,60.0,29.94,West,267,0.0,-999.0,90,-99.99,,,0.00,0,weatherlink.com 1.10,2013-06-12 09:17:00,
2013-06-12 02:32:00,62.7,60.0,29.95,WNW,300,0.0,-999.0,90,-99.99,,,0.00,0,weatherlink.com 1.10,2013-06-12 09:32:00,
2013-06-12 02:47:00,62.7,60.0,29.95,East,97,1.0,-999.0,90,-99.99,,,0.00,0,weatherlink.com 1.10,2013-06-12 09:47:00,
2013-06-12 03:02:00,62.4,60.0,29.95,SSE,162,0.0,-999.0,90,-99.99,,,0.00,0,weatherlink.com 1.10,2013-06-12 10:02:00,
2013-06-12 03:17:00,62.4,60.0,29.95,SSE,162,0.0,-999.0,90,-99.99,,,0.00,0,weatherlink.com 1.10,2013-06-12 10:17:00,
2013-06-12 03:32:00,62.3,59.0,29.95,South,189,0.0,-999.0,90,-99.99,,,0.00,0,weatherlink.com 1.10,2013-06-12 10:32:00,
2013-06-12 03:47:00,62.2,59.0,29.95,SW,229,0.0,-999.0,90,-99.99,,,0.00,0,weatherlink.com 1.10,2013-06-12 10:47:00,
2013-06-12 04:02:00,62.2,59.0,29.95,SW,229,0.0,-999.0,90,-99.99,,,0.00,0,weatherlink.com 1.10,2013-06-12 11:02:00,
2013-06-12 04:17:00,62.0,59.0,29.94,SW,229,0.0,-999.0,90,-99.99,,,0.00,0,weatherlink.com 1.10,2013-06-12 11:17:00,
2013-06-12 04:32:00,61.9,59.0,29.94,SW,229,0.0,-999.0,91,-99.99,,,0.00,0,weatherlink.com 1.10,2013-06-12 11:32:00,
2013-06-12 04:47:00,61.9,59.0,29.95,SW,229,0.0,-999.0,91,-99.99,,,0.00,0,weatherlink.com 1.10,2013-06-12 11:47:00,
2013-06-12 05:02:00,61.9,59.0,29.95,SW,229,0.0,-999.0,91,-99.99,,,0.00,0,weatherlink.com 1.10,2013-06-12 12:02:00,
2013-06-12 05:17:00,62.1,60.0,29.95,SSE,152,0.0,-999.0,91,-99.99,,,0.00,0,weatherlink.com 1.10,2013-06-12 12:17:00,
2013-06-12 05:32:00,62.1,60.0,29.96,South,175,3.0,-999.0,91,-99.99,,,0.00,0,weatherlink.com 1.10,2013-06-12 12:32:00,
2013-06-12 05:47:00,62.1,60.0,29.97,SSE,168,0.0,-999.0,91,-99.99,,,0.00,0,weatherlink.com 1.10,2013-06-12 12:47:00,
2013-06-12 06:02:00,62.1,60.0,29.97,South,176,0.0,-999.0,91,-99.99,,,0.00,0,weatherlink.com 1.10,2013-06-12 13:02:00,
2013-06-12 06:17:00,62.0,59.0,29.98,South,176,0.0,-999.0,91,-99.99,,,0.00,5,weatherlink.com 1.10,2013-06-12 13:17:00,
2013-06-12 06:32:00,61.9,59.0,29.98,South,178,2.0,-999.0,91,-99.99,,,0.00,11,weatherlink.com 1.10,2013-06-12 13:32:00,
2013-06-12 06:47:00,61.8,59.0,29.98,South,179,0.0,-999.0,91,-99.99,,,0.00,19,weatherlink.com 1.10,2013-06-12 13:47:00,
2013-06-12 07:02:00,61.9,59.0,29.98,SSE,148,2.0,-999.0,91,-99.99,,,0.00,28,weatherlink.com 1.10,2013-06-12 14:02:00,
2013-06-12 07:17:00,61.9,59.0,29.98,SSE,157,0.0,-999.0,91,-99.99,,,0.00,35,weatherlink.com 1.10,2013-06-12 14:17:00,
2013-06-12 07:32:00,62.0,59.0,29.99,SSE,158,0.0,-999.0,91,-99.99,,,0.00,56,weatherlink.com 1.10,2013-06-12 14:32:00,
2013-06-12 07:47:00,62.1,60.0,29.98,SE,141,0.0,-999.0,91,-99.99,,,0.00,88,weatherlink.com 1.10,2013-06-12 14:47:00,
2013-06-12 08:02:00,62.3,59.0,29.98,SSW,204,2.0,-999.0,90,-99.99,,,0.00,88,weatherlink.com 1.10,2013-06-12 15:02:00,
2013-06-12 08:17:00,62.5,60.0,29.99,South,186,0.0,-999.0,90,-99.99,,,0.00,95,weatherlink.com 1.10,2013-06-12 15:17:00,
2013-06-12 08:32:00,62.8,60.0,30.00,SSE,165,0.0,-999.0,90,-99.99,,,0.00,95,weatherlink.com 1.10,2013-06-12 15:32:00,
2013-06-12 08:47:00,63.1,60.0,30.00,SE,135,0.0,-999.0,89,-99.99,,,0.00,97,weatherlink.com 1.10,2013-06-12 15:47:00,
2013-06-12 09:03:00,63.2,60.0,30.00,SSE,160,0.0,-999.0,89,-99.99,,,0.00,113,weatherlink.com 1.10,2013-06-12 16:03:00,
2013-06-12 09:18:00,63.4,60.0,30.01,SSE,150,0.0,-999.0,88,-99.99,,,0.00,132,weatherlink.com 1.10,2013-06-12 16:18:00,
2013-06-12 09:33:00,63.5,60.0,30.01,WSW,238,0.0,-999.0,88,-99.99,,,0.00,120,weatherlink.com 1.10,2013-06-12 16:33:00,
2013-06-12 09:48:00,63.6,60.0,30.02,SW,217,0.0,-999.0,87,-99.99,,,0.00,132,weatherlink.com 1.10,2013-06-12 16:48:00,
2013-06-12 10:03:00,63.6,60.0,30.02,WSW,241,0.0,-999.0,87,-99.99,,,0.00,123,weatherlink.com 1.10,2013-06-12 17:03:00,
2013-06-12 10:18:00,63.9,60.0,30.03,SSW,193,0.0,-999.0,86,-99.99,,,0.00,69,weatherlink.com 1.10,2013-06-12 17:18:00,
2013-06-12 10:33:00,63.7,60.0,30.03,West,259,3.0,-999.0,86,-99.99,,,0.00,88,weatherlink.com 1.10,2013-06-12 17:33:00,
2013-06-12 10:48:00,63.6,60.0,30.03,SSW,193,0.0,-999.0,87,-99.99,,,0.00,153,weatherlink.com 1.10,2013-06-12 17:48:00,
2013-06-12 11:03:00,64.0,60.0,30.03,SSW,203,0.0,-999.0,87,-99.99,,,0.00,172,weatherlink.com 1.10,2013-06-12 18:03:00,
2013-06-12 11:18:00,64.3,60.0,30.04,WSW,244,0.0,-999.0,87,-99.99,,,0.00,167,weatherlink.com 1.10,2013-06-12 18:18:00,
2013-06-12 11:33:00,64.7,61.0,30.04,SW,236,0.0,-999.0,86,-99.99,,,0.00,206,weatherlink.com 1.10,2013-06-12 18:33:00,
2013-06-12 11:48:00,65.4,61.0,30.04,SW,228,5.0,-999.0,85,-99.99,,,0.00,265,weatherlink.com 1.10,2013-06-12 18:48:00,
2013-06-12 12:03:00,66.2,61.0,30.04,SW,223,0.0,-999.0,84,-99.99,,,0.00,348,weatherlink.com 1.10,2013-06-12 19:03:00,
2013-06-12 12:18:00,66.8,61.0,30.03,North,354,0.0,-999.0,81,-99.99,,,0.00,244,weatherlink.com 1.10,2013-06-12 19:18:00,
2013-06-12 12:33:00,67.4,61.0,30.02,West,261,0.0,-999.0,80,-99.99,,,0.00,251,weatherlink.com 1.10,2013-06-12 19:33:00,
2013-06-12 12:48:00,68.0,61.0,30.02,NW,306,0.0,-999.0,78,-99.99,,,0.00,274,weatherlink.com 1.10,2013-06-12 19:48:00,
2013-06-12 13:03:00,68.6,61.0,30.02,WNW,292,0.0,-999.0,77,-99.99,,,0.00,287,weatherlink.com 1.10,2013-06-12 20:03:00,
2013-06-12 13:18:00,68.9,61.0,30.02,NW,311,3.0,-999.0,76,-99.99,,,0.00,517,weatherlink.com 1.10,2013-06-12 20:18:00,
2013-06-12 13:33:00,69.9,61.0,30.01,ESE,108,0.0,-999.0,74,-99.99,,,0.00,1104,weatherlink.com 1.10,2013-06-12 20:33:00,
2013-06-12 13:48:00,71.4,62.0,30.01,SW,230,0.0,-999.0,71,-99.99,,,0.00,877,weatherlink.com 1.10,2013-06-12 20:48:00,
2013-06-12 14:03:00,72.8,62.0,30.00,West,259,0.0,-999.0,68,-99.99,,,0.00,900,weatherlink.com 1.10,2013-06-12 21:03:00,
2013-06-12 14:18:00,74.9,62.0,30.00,NW,323,2.0,-999.0,65,-99.99,,,0.00,874,weatherlink.com 1.10,2013-06-12 21:18:00,
2013-06-12 14:33:00,75.7,62.0,29.98,SSW,193,0.0,-999.0,62,-99.99,,,0.00,846,weatherlink.com 1.10,2013-06-12 21:33:00,
2013-06-12 14:48:00,75.9,61.0,29.98,West,270,5.0,-999.0,61,-99.99,,,0.00,821,weatherlink.com 1.10,2013-06-12 21:48:00,
2013-06-12 15:03:00,76.4,62.0,29.98,WSW,248,4.0,-999.0,62,-99.99,,,0.00,796,weatherlink.com 1.10,2013-06-12 22:03:00,
2013-06-12 15:18:00,75.0,61.0,29.98,SW,220,3.0,-999.0,63,-99.99,,,0.00,763,weatherlink.com 1.10,2013-06-12 22:18:00,
2013-06-12 15:33:00,74.9,62.0,29.98,SSW,195,4.0,-999.0,64,-99.99,,,0.00,738,weatherlink.com 1.10,2013-06-12 22:33:00,
2013-06-12 15:48:00,74.1,61.0,29.98,SSW,210,3.0,-999.0,64,-99.99,,,0.00,589,weatherlink.com 1.10,2013-06-12 22:48:00,
2013-06-12 16:03:00,73.9,62.0,29.98,SSW,203,3.0,-999.0,66,-99.99,,,0.00,650,weatherlink.com 1.10,2013-06-12 23:03:00,
2013-06-12 16:18:00,74.0,61.0,29.97,North,1,0.0,-999.0,65,-99.99,,,0.00,605,weatherlink.com 1.10,2013-06-12 23:18:00,
2013-06-12 16:33:00,75.0,61.0,29.97,South,186,5.0,-999.0,63,-99.99,,,0.00,468,weatherlink.com 1.10,2013-06-12 23:33:00,
2013-06-12 16:48:00,74.2,62.0,29.97,WSW,243,5.0,-999.0,65,-99.99,,,0.00,520,weatherlink.com 1.10,2013-06-12 23:48:00,
2013-06-12 17:03:00,73.5,61.0,29.97,SSW,210,1.0,-999.0,66,-99.99,,,0.00,478,weatherlink.com 1.10,2013-06-13 00:03:00,
2013-06-12 17:19:00,72.7,61.0,29.97,SSW,210,4.0,-999.0,67,-99.99,,,0.00,427,weatherlink.com 1.10,2013-06-13 00:19:00,
2013-06-12 17:34:00,71.9,61.0,29.97,WSW,238,5.0,-999.0,68,-99.99,,,0.00,376,weatherlink.com 1.10,2013-06-13 00:34:00,
2013-06-12 17:49:00,71.2,61.0,29.97,SW,231,1.0,-999.0,70,-99.99,,,0.00,336,weatherlink.com 1.10,2013-06-13 00:49:00,
2013-06-12 18:04:00,71.2,61.0,29.97,West,269,2.0,-999.0,69,-99.99,,,0.00,218,weatherlink.com 1.10,2013-06-13 01:04:00,
2013-06-12 18:19:00,69.9,60.0,29.97,South,189,3.0,-999.0,71,-99.99,,,0.00,169,weatherlink.com 1.10,2013-06-13 01:19:00,
2013-06-12 18:34:00,69.3,60.0,29.97,South,171,4.0,-999.0,72,-99.99,,,0.00,104,weatherlink.com 1.10,2013-06-13 01:34:00,
2013-06-12 18:49:00,68.6,60.0,29.97,SSW,213,1.0,-999.0,74,-99.99,,,0.00,74,weatherlink.com 1.10,2013-06-13 01:49:00,
2013-06-12 19:04:00,67.6,59.0,29.97,WSW,238,3.0,-999.0,75,-99.99,,,0.00,49,weatherlink.com 1.10,2013-06-13 02:04:00,
2013-06-12 19:19:00,66.6,59.0,29.98,SW,230,0.0,-999.0,77,-99.99,,,0.00,42,weatherlink.com 1.10,2013-06-13 02:19:00,
2013-06-12 19:34:00,66.0,59.0,29.98,WSW,247,0.0,-999.0,78,-99.99,,,0.00,16,weatherlink.com 1.10,2013-06-13 02:34:00,
2013-06-12 19:50:00,65.6,59.0,29.98,WSW,245,3.0,-999.0,79,-99.99,,,0.00,5,weatherlink.com 1.10,2013-06-13 02:50:00,
2013-06-12 20:04:00,65.4,59.0,29.99,NW,320,0.0,-999.0,79,-99.99,,,0.00,0,weatherlink.com 1.10,2013-06-13 03:04:00,
2013-06-12 20:19:00,65.2,59.0,29.98,NW,320,1.0,-999.0,80,-99.99,,,0.00,0,weatherlink.com 1.10,2013-06-13 03:19:00,
2013-06-12 20:35:00,65.0,59.0,29.99,West,271,1.0,-999.0,80,-99.99,,,0.00,0,weatherlink.com 1.10,2013-06-13 03:35:00,
2013-06-12 20:50:00,64.9,59.0,29.99,WNW,303,0.0,-999.0,81,-99.99,,,0.00,0,weatherlink.com 1.10,2013-06-13 03:50:00,
2013-06-12 21:04:00,64.8,59.0,29.99,NNW,328,0.0,-999.0,81,-99.99,,,0.00,0,weatherlink.com 1.10,2013-06-13 04:04:00,
2013-06-12 21:20:00,64.8,59.0,30.00,NNW,328,0.0,-999.0,81,-99.99,,,0.00,0,weatherlink.com 1.10,2013-06-13 04:20:00,
2013-06-12 21:35:00,65.0,59.0,30.00,NNW,328,0.0,-999.0,81,-99.99,,,0.00,0,weatherlink.com 1.10,2013-06-13 04:35:00,
2013-06-12 21:51:00,65.2,59.0,30.00,NNW,328,0.0,-999.0,81,-99.99,,,0.00,0,weatherlink.com 1.10,2013-06-13 04:51:00,
2013-06-12 22:05:00,65.2,59.0,30.01,NNW,328,0.0,-999.0,81,-99.99,,,0.00,0,weatherlink.com 1.10,2013-06-13 05:05:00,
2013-06-12 22:21:00,65.3,59.0,30.01,NW,320,0.0,-999.0,80,-99.99,,,0.00,0,weatherlink.com 1.10,2013-06-13 05:21:00,
2013-06-12 22:36:00,65.2,59.0,30.01,NW,309,0.0,-999.0,80,-99.99,,,0.00,0,weatherlink.com 1.10,2013-06-13 05:36:00,
2013-06-12 22:51:00,65.1,59.0,30.00,WSW,244,0.0,-999.0,80,-99.99,,,0.00,0,weatherlink.com 1.10,2013-06-13 05:51:00,
2013-06-12 23:05:00,64.8,59.0,30.00,WSW,244,0.0,-999.0,81,-99.99,,,0.00,0,weatherlink.com 1.10,2013-06-13 06:05:00,
2013-06-12 23:20:00,64.8,59.0,30.00,WSW,244,0.0,-999.0,81,-99.99,,,0.00,0,weatherlink.com 1.10,2013-06-13 06:20:00,
2013-06-12 23:36:00,64.9,59.0,30.00,WSW,243,0.0,-999.0,81,-99.99,,,0.00,0,weatherlink.com 1.10,2013-06-13 06:36:00,
2013-06-12 23:50:00,64.7,59.0,30.00,WSW,243,0.0,-999.0,81,-99.99,,,0.00,0,weatherlink.com 1.10,2013-06-13 06:50:00,